Time;durP1;ratioP1;P1;durP2;ratioP2;P2;SDS_P1;SDS_P2;PMS_P1;PMS_P2;Temp;Humidity;BMP_temperature;BMP_pressure;BME280_temperature;BME280_humidity;BME280_pressure;Samples;Min_cycle;Max_cycle;Signal;HPM_P1;HPM_P2
2024/04/03 00:01:13;;;;;;;2.58;1.35;;;;;;;13.80;40.35;99231.34;4906714;29;20547;-91
2024/04/03 00:03:39;;;;;;;1.80;0.50;;;;;;;13.74;40.38;99221.72;4891011;29;20084;-92
2024/04/03 00:06:05;;;;;;;1.75;0.40;;;;;;;13.70;40.26;99221.47;4904701;29;20522;-92
2024/04/03 00:08:30;;;;;;;0.60;0.50;;;;;;;13.59;40.62;99224.59;4893049;29;20056;-93
2024/04/03 00:10:56;;;;;;;0.77;0.40;;;;;;;13.56;40.82;99227.91;4891247;29;20114;-92
2024/04/03 00:13:21;;;;;;;1.38;0.50;;;;;;;13.61;41.02;99239.44;4890490;29;20452;-92
2024/04/03 00:15:48;;;;;;;0.50;0.40;;;;;;;13.63;40.35;99226.44;4890220;29;20012;-93
2024/04/03 00:18:14;;;;;;;0.70;0.50;;;;;;;13.59;40.20;99222.69;4905334;29;20503;-92
2024/04/03 00:20:40;;;;;;;0.88;0.50;;;;;;;13.65;40.80;99248.59;4891272;29;20123;-93
2024/04/03 00:23:05;;;;;;;0.73;0.40;;;;;;;13.48;40.70;99213.94;4891314;29;20020;-92
2024/04/03 00:25:31;;;;;;;2.28;0.52;;;;;;;13.60;40.69;99227.03;4890807;29;20511;-91
2024/04/03 00:27:57;;;;;;;0.90;0.50;;;;;;;13.56;40.86;99228.72;4891672;29;20035;-92
2024/04/03 00:30:22;;;;;;;0.90;0.60;;;;;;;13.47;41.02;99216.94;4889088;29;20036;-91
2024/04/03 00:32:48;;;;;;;0.68;0.45;;;;;;;13.60;41.07;99228.94;4890970;29;20519;-93
2024/04/03 00:35:14;;;;;;;1.27;0.65;;;;;;;13.70;40.39;99245.03;4905644;29;20020;-93
2024/04/03 00:37:40;;;;;;;0.80;0.45;;;;;;;13.68;40.83;99236.41;4904923;29;20031;-92
2024/04/03 00:40:06;;;;;;;1.02;0.60;;;;;;;13.59;41.01;99228.13;4889274;29;20038;-93
2024/04/03 00:42:32;;;;;;;0.60;0.40;;;;;;;13.52;40.93;99216.88;4888775;29;20479;-93
2024/04/03 00:44:57;;;;;;;1.67;1.30;;;;;;;13.59;40.76;99228.13;4903967;29;20024;-92
2024/04/03 00:47:23;;;;;;;1.65;0.75;;;;;;;13.49;41.18;99233.69;4904879;29;20551;-92
2024/04/03 00:49:49;;;;;;;0.98;0.60;;;;;;;13.42;41.04;99230.53;4888609;29;20028;-92
2024/04/03 00:52:15;;;;;;;0.45;0.45;;;;;;;13.52;41.10;99260.16;4921531;29;20483;-93
2024/04/03 00:54:45;;;;;;;0.80;0.50;;;;;;;13.36;41.36;99242.50;4890676;29;20036;-92
2024/04/03 00:57:11;;;;;;;1.00;0.70;;;;;;;13.30;40.38;99234.47;4905211;29;20035;-92
2024/04/03 00:59:38;;;;;;;0.98;0.55;;;;;;;13.36;40.54;99243.28;4889081;29;20123;-92
2024/04/03 01:02:03;;;;;;;1.13;0.60;;;;;;;13.56;41.20;99274.69;4919606;29;20036;-92
2024/04/03 01:04:29;;;;;;;2.45;0.47;;;;;;;13.54;40.20;99247.13;4888290;29;20031;-92
2024/04/03 01:06:55;;;;;;;0.77;0.50;;;;;;;13.61;39.98;99252.97;4886799;29;20032;-91
2024/04/03 01:09:20;;;;;;;1.35;0.80;;;;;;;13.53;40.72;99257.16;4903854;29;20498;-92
2024/04/03 01:11:46;;;;;;;0.70;0.47;;;;;;;13.53;40.31;99267.97;4873183;29;20068;-92
2024/04/03 01:14:12;;;;;;;0.98;0.70;;;;;;;13.59;40.09;99248.97;4904106;29;20114;-93
2024/04/03 01:16:40;;;;;;;1.27;0.57;;;;;;;13.70;40.26;99250.44;4872161;29;20028;-92
2024/04/03 01:19:06;;;;;;;1.10;0.65;;;;;;;13.57;40.04;99243.84;4887910;29;20032;-90
2024/04/03 01:21:31;;;;;;;0.60;0.50;;;;;;;13.61;40.40;99249.47;4887794;29;20043;-91
2024/04/03 01:23:57;;;;;;;2.95;0.52;;;;;;;13.71;40.48;99274.47;4888147;29;20036;-91
2024/04/03 01:26:25;;;;;;;0.88;0.50;;;;;;;13.56;40.33;99252.25;4886865;29;20056;-91
2024/04/03 01:28:50;;;;;;;3.70;0.50;;;;;;;13.49;40.42;99244.50;4887660;29;20031;-92
2024/04/03 01:31:16;;;;;;;1.38;0.40;;;;;;;13.65;40.47;99269.44;4903675;29;20035;-91
2024/04/03 01:33:41;;;;;;;2.55;0.50;;;;;;;13.59;39.96;99251.66;4902934;29;20566;-91
2024/04/03 01:36:07;;;;;;;0.60;0.60;;;;;;;13.70;40.06;99261.28;4886783;29;20028;-92
2024/04/03 01:38:33;;;;;;;0.60;0.50;;;;;;;13.71;40.12;99279.91;4902437;29;20056;-91
2024/04/03 01:40:58;;;;;;;0.75;0.57;;;;;;;13.62;40.56;99278.16;4902901;29;20136;-93
2024/04/03 01:43:24;;;;;;;1.10;0.50;;;;;;;13.56;40.75;99260.38;4886952;29;20036;-90
2024/04/03 01:45:57;;;;;;;3.53;0.77;;;;;;;13.46;41.35;99262.09;4887433;29;20039;-93
2024/04/03 01:48:22;;;;;;;1.50;0.40;;;;;;;13.49;41.22;99258.84;4887062;29;20063;-92
2024/04/03 01:50:48;;;;;;;1.25;0.65;;;;;;;13.60;40.61;99256.00;4887601;29;20123;-92
2024/04/03 01:53:14;;;;;;;2.75;0.82;;;;;;;13.53;40.67;99256.34;4886562;29;20051;-93
2024/04/03 01:55:39;;;;;;;1.58;0.57;;;;;;;13.44;40.92;99253.47;4902413;29;20539;-92
2024/04/03 01:58:05;;;;;;;0.80;0.50;;;;;;;13.46;40.78;99258.59;4887058;29;20091;-91
2024/04/03 02:00:30;;;;;;;2.15;0.70;;;;;;;13.42;41.88;99263.78;4886827;29;20054;-92
2024/04/03 02:02:56;;;;;;;1.60;0.70;;;;;;;13.31;42.95;99268.50;4902971;29;20110;-93
2024/04/03 02:05:22;;;;;;;1.30;0.90;;;;;;;13.23;43.82;99265.63;4887126;29;20024;-91
2024/04/03 02:07:49;;;;;;;1.90;1.00;;;;;;;13.11;43.82;99266.84;4886385;29;20435;-92
2024/04/03 02:10:15;;;;;;;2.90;0.90;;;;;;;13.04;44.25;99266.34;4902544;29;20059;-92
2024/04/03 02:12:40;;;;;;;8.13;1.33;;;;;;;12.90;44.31;99279.75;4886905;29;20039;-93
2024/04/03 02:15:09;;;;;;;4.80;1.13;;;;;;;12.84;44.73;99275.47;4902513;29;20031;-92
2024/04/03 02:17:34;;;;;;;4.25;1.10;;;;;;;12.67;46.43;99280.53;4887635;29;20036;-91
2024/04/03 02:20:00;;;;;;;3.63;0.80;;;;;;;12.65;46.26;99271.91;4886508;29;20032;-92
2024/04/03 02:22:26;;;;;;;3.55;0.90;;;;;;;12.49;46.28;99280.16;4903319;29;20059;-90
2024/04/03 02:24:52;;;;;;;2.70;0.80;;;;;;;12.40;46.49;99270.22;4888314;29;20047;-91
2024/04/03 02:27:17;;;;;;;4.75;0.88;;;;;;;12.13;47.39;99271.50;4886656;29;20036;-91
2024/04/03 02:29:43;;;;;;;6.13;1.10;;;;;;;12.13;47.91;99269.59;4886743;29;20123;-91
2024/04/03 02:32:08;;;;;;;3.90;1.10;;;;;;;12.08;47.24;99272.34;4917983;29;20028;-92
2024/04/03 02:34:34;;;;;;;1.25;0.85;;;;;;;12.07;46.94;99276.13;4917264;29;20103;-92
2024/04/03 02:37:00;;;;;;;2.38;1.08;;;;;;;11.96;47.17;99276.50;4903208;29;20049;-91
2024/04/03 02:39:25;;;;;;;0.73;0.68;;;;;;;11.94;46.82;99282.16;4870426;29;20084;-92
2024/04/03 02:41:51;;;;;;;1.30;0.73;;;;;;;11.89;47.08;99288.41;4902263;29;20050;-90
2024/04/03 02:44:17;;;;;;;3.17;1.00;;;;;;;11.80;47.75;99281.13;4886360;29;20032;-90
2024/04/03 02:46:42;;;;;;;1.48;0.88;;;;;;;11.70;47.38;99273.91;4886351;29;20111;-92
2024/04/03 02:49:08;;;;;;;1.35;0.80;;;;;;;11.66;47.34;99283.63;4885948;29;20004;-92
2024/04/03 02:51:33;;;;;;;4.13;1.00;;;;;;;11.51;48.10;99265.63;4901484;29;20529;-91
2024/04/03 02:53:59;;;;;;;2.45;0.90;;;;;;;11.51;48.86;99277.22;4902988;29;20029;-92
2024/04/03 02:56:25;;;;;;;3.83;1.02;;;;;;;11.57;49.29;99299.59;4922625;29;20119;-92
2024/04/03 02:58:50;;;;;;;2.88;1.00;;;;;;;11.49;48.97;99287.47;4935733;29;20486;-91
2024/04/03 03:01:16;;;;;;;3.50;0.90;;;;;;;11.56;49.30;99313.34;4921342;29;20398;-91
2024/04/03 03:03:42;;;;;;;5.20;1.20;;;;;;;11.43;49.61;99295.88;4904888;29;20167;-92
2024/04/03 03:06:07;;;;;;;3.92;1.00;;;;;;;11.39;49.34;99297.50;4904329;29;20061;-91
2024/04/03 03:08:34;;;;;;;1.73;1.10;;;;;;;11.28;49.45;99292.16;4894308;29;20058;-91
2024/04/03 03:11:01;;;;;;;4.35;1.20;;;;;;;11.30;50.13;99300.75;4870978;29;20024;-91
2024/04/03 03:13:27;;;;;;;1.35;0.90;;;;;;;11.30;50.15;99318.84;4887522;29;20008;-91
2024/04/03 03:15:57;;;;;;;2.80;0.80;;;;;;;11.11;50.20;99322.13;4871477;29;20110;-91
2024/04/03 03:18:24;;;;;;;1.42;0.80;;;;;;;11.00;50.29;99331.31;4887370;29;20032;-92
2024/04/03 03:20:50;;;;;;;3.75;0.90;;;;;;;10.89;50.96;99325.13;4871812;29;20111;-91
2024/04/03 03:23:16;;;;;;;5.50;1.08;;;;;;;10.86;51.30;99333.75;4871715;29;20056;-91
2024/04/03 03:25:47;;;;;;;2.45;0.98;;;;;;;10.76;50.89;99322.19;4900971;29;20039;-91
2024/04/03 03:28:12;;;;;;;1.75;0.90;;;;;;;10.74;51.16;99316.25;4871673;29;20483;-90
2024/04/03 03:30:38;;;;;;;2.13;1.00;;;;;;;10.77;51.79;99329.16;4870403;29;20040;-91
2024/04/03 03:33:04;;;;;;;2.90;0.95;;;;;;;10.74;51.56;99335.91;4871170;29;20052;-92
2024/04/03 03:35:30;;;;;;;2.15;0.80;;;;;;;10.64;51.68;99333.22;4870345;29;20024;-92
2024/04/03 03:37:58;;;;;;;2.13;0.93;;;;;;;10.66;51.70;99333.75;4870450;29;20029;-92
2024/04/03 03:40:24;;;;;;;3.45;1.23;;;;;;;10.70;51.79;99349.09;4855506;29;20020;-93
2024/04/03 03:42:49;;;;;;;7.18;1.30;;;;;;;10.62;51.83;99341.56;4871035;29;20024;-93
2024/04/03 03:45:19;;;;;;;4.57;1.08;;;;;;;10.52;52.22;99349.63;4870075;29;20032;-92
2024/04/03 03:47:45;;;;;;;2.17;1.17;;;;;;;10.42;52.44;99342.38;4855889;29;20033;-91
2024/04/03 03:52:55;;;;;;;4.60;1.05;;;;;;;10.61;52.43;99366.88;4874225;29;20510;-91
2024/04/03 03:55:20;;;;;;;3.05;1.33;;;;;;;10.51;52.65;99351.53;4854511;29;20033;-92
2024/04/03 03:57:46;;;;;;;2.50;1.40;;;;;;;10.58;52.95;99372.00;4885135;29;20135;-90
2024/04/03 04:00:12;;;;;;;5.03;1.23;;;;;;;10.46;53.13;99358.81;4865142;29;20381;-91
2024/04/03 04:02:37;;;;;;;5.00;1.33;;;;;;;10.37;53.54;99361.19;4870682;29;20043;-91
2024/04/03 04:05:03;;;;;;;8.85;1.85;;;;;;;10.35;53.39;99374.13;4886346;29;20471;-91
2024/04/03 04:07:29;;;;;;;9.55;2.00;;;;;;;10.30;53.50;99382.19;4876447;29;20526;-91
2024/04/03 04:09:57;;;;;;;3.08;1.50;;;;;;;10.24;53.48;99380.53;4908069;29;20054;-91
2024/04/03 04:12:22;;;;;;;8.25;2.78;;;;;;;10.28;53.44;99393.19;4901021;29;20040;-91
2024/04/03 04:14:49;;;;;;;8.85;1.90;;;;;;;10.15;53.54;99391.00;4917108;29;20182;-91
2024/04/03 04:17:15;;;;;;;5.38;1.63;;;;;;;10.14;53.80;99392.06;4933415;29;20043;-90
2024/04/03 04:19:41;;;;;;;5.18;2.10;;;;;;;10.30;54.16;99420.66;4892646;29;20031;-91
2024/04/03 04:22:06;;;;;;;11.98;2.10;;;;;;;10.22;54.56;99414.97;4894513;29;20060;-91
2024/04/03 04:24:33;;;;;;;5.20;1.58;;;;;;;10.16;54.23;99405.25;4912794;29;20159;-94
2024/04/03 04:27:01;;;;;;;5.80;2.03;;;;;;;10.24;53.46;99399.38;4889941;29;20094;-93
2024/04/03 04:29:36;;;;;;;56.95;32.53;;;;;;;10.45;53.22;99427.16;4881243;29;20115;-92
2024/04/03 04:32:14;;;;;;;21.55;2.67;;;;;;;10.60;52.20;99427.19;4924944;29;20042;-91
2024/04/03 04:34:42;;;;;;;16.45;2.95;;;;;;;10.78;52.20;99430.44;4905761;29;20506;-92
2024/04/03 04:37:08;;;;;;;5.90;2.15;;;;;;;10.78;52.40;99416.97;4912226;29;20503;-90
2024/04/03 04:39:34;;;;;;;25.25;3.22;;;;;;;10.78;53.32;99415.09;4883114;29;20030;-92
2024/04/03 04:42:00;;;;;;;8.07;2.85;;;;;;;10.76;53.35;99408.34;4927954;29;20097;-91
2024/04/03 04:44:34;;;;;;;19.25;4.22;;;;;;;10.91;53.45;99436.13;4885080;29;20039;-92
2024/04/03 04:47:00;;;;;;;7.30;2.40;;;;;;;11.03;53.39;99443.91;4892136;29;20092;-92
2024/04/03 04:49:26;;;;;;;7.93;2.40;;;;;;;10.74;52.61;99408.63;4888183;29;20032;-91
2024/04/03 04:51:51;;;;;;;8.63;3.20;;;;;;;10.78;52.79;99415.09;4890191;29;20096;-92
2024/04/03 04:54:17;;;;;;;5.60;2.20;;;;;;;10.98;52.53;99448.47;4889609;29;20117;-91
2024/04/03 04:56:46;;;;;;;5.72;2.45;;;;;;;11.07;52.92;99444.19;4892714;29;20105;-92
2024/04/03 04:59:13;;;;;;;11.93;3.90;;;;;;;11.01;53.38;99437.19;4875396;29;20028;-91
2024/04/03 05:01:41;;;;;;;9.48;2.65;;;;;;;11.03;52.31;99426.94;4905502;29;20032;-93
2024/04/03 05:04:11;;;;;;;5.70;3.00;;;;;;;11.26;51.14;99439.06;4874855;29;20060;-92
2024/04/03 05:06:37;;;;;;;7.22;2.00;;;;;;;11.36;50.52;99440.94;4890300;29;20032;-93
2024/04/03 05:09:03;;;;;;;5.60;1.27;;;;;;;11.46;48.54;99443.63;4885641;29;20049;-93
2024/04/03 05:11:29;;;;;;;10.43;2.60;;;;;;;11.51;48.84;99439.00;4886414;29;20484;-92
2024/04/03 05:13:55;;;;;;;3.60;1.30;;;;;;;11.70;46.81;99444.66;4884938;29;20008;-90
2024/04/03 05:16:21;;;;;;;3.72;2.40;;;;;;;11.90;45.99;99456.47;4887775;29;20028;-90
2024/04/03 05:18:47;;;;;;;3.10;1.60;;;;;;;12.02;46.23;99440.00;4884746;29;20033;-88
2024/04/03 05:21:13;;;;;;;4.38;1.17;;;;;;;12.29;45.43;99464.69;4869710;29;20033;-92
2024/04/03 05:23:39;;;;;;;5.25;1.25;;;;;;;12.39;45.58;99461.16;4869513;29;20071;-91
2024/04/03 05:26:27;;;;;;;3.33;1.80;;;;;;;12.58;44.65;99468.59;4886430;29;20028;-89
2024/04/03 05:28:53;;;;;;;4.22;1.35;;;;;;;12.58;44.23;99458.59;4869661;29;20033;-91
2024/04/03 05:31:43;;;;;;;3.08;2.17;;;;;;;12.73;44.51;99476.59;4885212;29;20047;-92
2024/04/03 05:34:09;;;;;;;4.28;2.35;;;;;;;12.68;44.39;99455.03;4886386;29;20092;-92
2024/04/03 05:36:34;;;;;;;6.95;2.47;;;;;;;12.95;44.80;99470.78;4871717;29;20051;-95
2024/04/03 05:39:00;;;;;;;3.97;1.25;;;;;;;12.86;44.10;99453.53;4887566;29;20025;-92
2024/04/03 05:41:26;;;;;;;3.25;1.27;;;;;;;13.01;43.69;99464.25;4871211;29;20060;-90
2024/04/03 05:43:52;;;;;;;7.63;2.10;;;;;;;13.27;43.38;99472.94;4887993;29;20060;-96
2024/04/03 05:46:21;;;;;;;4.28;2.00;;;;;;;13.42;43.41;99472.03;4872913;29;20028;-95
2024/04/03 05:48:46;;;;;;;16.20;8.57;;;;;;;13.53;42.96;99483.59;4872209;29;20025;-94
2024/04/03 05:51:12;;;;;;;29.23;13.20;;;;;;;13.63;42.49;99469.94;4887464;29;20028;-93
2024/04/03 05:53:55;;;;;;;21.10;9.70;;;;;;;13.72;42.59;99478.25;4886588;29;20048;-94
2024/04/03 05:56:30;;;;;;;1.77;1.02;;;;;;;13.94;41.91;99475.03;4872045;29;20052;-91
2024/04/03 05:58:56;;;;;;;2.78;1.23;;;;;;;14.02;41.72;99473.59;4876528;29;20054;-91
2024/04/03 06:04:48;;;;;;;1.98;0.85;;;;;;;14.33;41.22;99493.78;4904961;29;20055;-94
2024/04/03 06:07:14;;;;;;;1.48;0.80;;;;;;;14.30;40.74;99488.97;4876319;29;20051;-92
2024/04/03 06:09:48;;;;;;;1.98;0.90;;;;;;;14.37;40.48;99474.25;4903344;29;20056;-93
2024/04/03 06:12:14;;;;;;;1.60;0.80;;;;;;;14.67;40.48;99500.13;4889383;29;20036;-92
2024/04/03 06:14:45;;;;;;;3.60;1.08;;;;;;;14.65;40.23;99497.75;4890139;29;20471;-92
2024/04/03 06:17:11;;;;;;;2.90;0.70;;;;;;;14.68;39.53;99482.78;4891448;29;20032;-92
2024/04/03 06:19:45;;;;;;;2.67;1.15;;;;;;;14.78;40.17;99485.38;4913489;29;20028;-95
2024/04/03 06:22:11;;;;;;;9.55;5.47;;;;;;;14.91;39.71;99490.03;4899013;29;20130;-94
2024/04/03 06:24:36;;;;;;;5.90;2.67;;;;;;;15.10;38.85;99490.00;4896757;29;20416;-93
2024/04/03 06:27:03;;;;;;;2.97;0.73;;;;;;;15.21;39.04;99493.38;4888762;29;20144;-94
2024/04/03 06:29:29;;;;;;;8.70;3.28;;;;;;;15.34;38.91;99492.63;4874138;29;20020;-95
2024/04/03 06:32:04;;;;;;;2.80;0.80;;;;;;;15.36;38.50;99476.84;4874308;29;20034;-96
2024/04/03 06:34:53;;;;;;;4.53;1.17;;;;;;;15.66;38.36;99511.88;4878838;29;20407;-96
2024/04/03 06:37:19;;;;;;;5.15;1.10;;;;;;;15.78;38.01;99516.88;4892442;29;20064;-92
2024/04/03 06:39:46;;;;;;;1.40;0.63;;;;;;;15.68;37.58;99490.69;4894743;29;20047;-92
2024/04/03 06:42:14;;;;;;;3.72;1.90;;;;;;;15.78;37.86;99492.44;4913420;29;20051;-92
2024/04/03 06:44:41;;;;;;;4.47;1.95;;;;;;;15.88;37.18;99484.91;4920599;29;20032;-93
2024/04/03 06:50:31;;;;;;;1.38;0.50;;;;;;;16.20;36.93;99507.63;4796803;29;20041;-91
2024/04/03 06:53:00;;;;;;;1.27;0.77;;;;;;;16.17;37.02;99500.09;4814335;29;20620;-94
2024/04/03 06:55:36;;;;;;;2.10;0.80;;;;;;;15.93;37.08;99482.06;4818471;29;20042;-91
2024/04/03 06:58:04;;;;;;;2.42;0.80;;;;;;;16.27;36.75;99513.47;4835202;29;20034;-93
2024/04/03 07:00:30;;;;;;;3.40;0.85;;;;;;;16.19;37.14;99478.06;4850920;29;20030;-92
2024/04/03 07:02:56;;;;;;;2.22;0.60;;;;;;;16.35;36.59;99512.78;4844990;29;20096;-92
2024/04/03 07:05:24;;;;;;;5.82;2.33;;;;;;;16.29;36.51;99494.13;4845087;29;20509;-93
2024/04/03 07:07:49;;;;;;;0.70;0.60;;;;;;;16.37;36.38;99504.28;4833804;29;20050;-90
2024/04/03 07:10:15;;;;;;;9.38;2.42;;;;;;;16.59;36.14;99535.41;4831194;29;20167;-91
2024/04/03 07:12:41;;;;;;;1.45;0.70;;;;;;;16.50;35.82;99508.94;4848911;29;20382;-90
2024/04/03 07:15:08;;;;;;;3.35;0.70;;;;;;;16.67;35.74;99531.97;4839857;29;20030;-90
2024/04/03 07:18:23;;;;;;;2.05;0.90;;;;;;;16.77;35.98;99515.44;4842196;29;20045;-91
2024/04/03 07:20:53;;;;;;;0.52;0.40;;;;;;;16.74;35.00;99500.50;4801486;29;20076;-92
2024/04/03 07:23:25;;;;;;;0.60;0.50;;;;;;;16.89;35.14;99528.50;4802534;29;20526;-94
2024/04/03 07:26:05;;;;;;;13.25;1.13;;;;;;;16.85;35.34;99512.00;4795294;29;20470;-94
2024/04/03 07:28:34;;;;;;;0.65;0.47;;;;;;;16.86;34.54;99515.53;4812318;29;20112;-93
2024/04/03 07:31:00;;;;;;;3.75;0.85;;;;;;;16.92;34.74;99496.06;4837883;29;20488;-94
2024/04/03 07:33:29;;;;;;;3.13;0.88;;;;;;;17.09;34.38;99516.34;4890539;29;20136;-94
2024/04/03 07:36:55;;;;;;;1.13;0.60;;;;;;;17.00;34.08;99507.34;4888818;29;20099;-95
2024/04/03 08:01:40;;;;;;;;;;;;;;;;;;;;;
2024/04/03 08:07:59;;;;;;;;;;;;;;;;;;;;;
2024/04/03 08:10:26;;;;;;;1.00;0.50;;;;;;;17.30;34.68;99495.69;4942471;29;20103;-94
2024/04/03 08:12:53;;;;;;;2.72;0.60;;;;;;;17.36;34.23;99477.31;4944870;29;20059;-90
2024/04/03 08:16:00;;;;;;;;;;;;;;;;;;;;;
2024/04/03 08:18:49;;;;;;;2.25;0.73;;;;;;;17.54;33.74;99486.41;4943769;29;20102;-92
2024/04/03 08:21:17;;;;;;;1.42;0.68;;;;;;;17.77;34.41;99496.13;4925700;29;20546;-91
2024/04/03 08:23:57;;;;;;;2.28;0.60;;;;;;;17.94;32.91;99506.31;4887082;29;20487;-93
2024/04/03 08:26:32;;;;;;;2.22;0.50;;;;;;;17.88;32.58;99504.84;4905282;29;20068;-93
2024/04/03 08:29:12;;;;;;;1.23;0.73;;;;;;;17.93;32.41;99501.22;4874560;29;20032;-93
2024/04/03 08:31:41;;;;;;;2.83;0.98;;;;;;;17.98;32.28;99496.41;4874528;29;20036;-94
2024/04/03 08:34:16;;;;;;;3.38;1.25;;;;;;;18.11;32.42;99502.84;4879256;29;20071;-93
2024/04/03 08:36:44;;;;;;;1.73;0.70;;;;;;;18.07;33.15;99504.59;4899990;29;20105;-95
2024/04/03 08:39:48;;;;;;;;;;;;;;;;;;;;;
2024/04/03 08:46:03;;;;;;;1.33;0.90;;;;;;;18.10;33.01;99495.81;4856291;29;20101;-96
2024/04/03 08:48:40;;;;;;;4.67;0.80;;;;;;;18.23;32.70;99490.56;4825020;29;20046;-94
2024/04/03 08:54:10;;;;;;;1.45;0.52;;;;;;;18.36;31.94;99508.69;4898841;29;20042;-92
2024/04/03 08:57:13;;;;;;;;;;;;;;;;;;;;;
2024/04/03 08:59:59;;;;;;;1.08;0.50;;;;;;;18.50;31.99;99494.94;4939564;29;20443;-91
2024/04/03 09:02:27;;;;;;;1.55;0.70;;;;;;;18.52;31.99;99498.16;4894929;29;20040;-90
2024/04/03 09:04:56;;;;;;;1.58;0.90;;;;;;;18.56;32.56;99497.19;4909730;29;20028;-94
2024/04/03 09:07:31;;;;;;;1.05;0.60;;;;;;;18.65;32.26;99483.56;4927285;29;20039;-95
2024/04/03 09:09:59;;;;;;;6.13;0.82;;;;;;;18.84;31.85;99498.84;4910750;29;20042;-93
2024/04/03 09:12:45;;;;;;;2.08;0.73;;;;;;;18.68;31.33;99485.66;4896692;29;20068;-94
2024/04/03 09:15:11;;;;;;;3.45;1.35;;;;;;;18.68;32.18;99493.06;4875529;29;20037;-94
2024/04/03 09:17:50;;;;;;;;;;;;;;;;;;;;;
2024/04/03 09:20:37;;;;;;;2.92;0.80;;;;;;;18.67;32.00;99462.22;4870217;29;20107;-93
2024/04/03 09:23:16;;;;;;;1.25;0.60;;;;;;;18.76;31.80;99482.16;4869763;29;20129;-93
2024/04/03 09:25:41;;;;;;;1.80;0.60;;;;;;;18.47;31.76;99451.94;4855796;29;20036;-94
2024/04/03 09:29:11;;;;;;;4.40;0.50;;;;;;;18.63;32.13;99476.84;4856452;29;20032;-95
2024/04/03 09:31:49;;;;;;;1.48;0.50;;;;;;;18.51;31.69;99477.44;4871182;29;20045;-96
2024/04/03 09:40:49;;;;;;;1.70;0.65;;;;;;;18.51;31.91;99461.91;4936632;29;20090;-95
2024/04/03 09:43:19;;;;;;;2.05;0.80;;;;;;;18.61;32.27;99462.72;4911159;29;20055;-92
2024/04/03 09:45:47;;;;;;;13.88;7.45;;;;;;;18.71;31.46;99446.03;4917081;29;20123;-91
2024/04/03 09:51:24;;;;;;;2.60;0.70;;;;;;;18.94;30.83;99457.59;4876704;29;20072;-92
2024/04/03 09:53:50;;;;;;;0.63;0.40;;;;;;;18.82;30.92;99450.06;4897439;29;20121;-94
2024/04/03 09:56:16;;;;;;;2.55;0.80;;;;;;;18.77;30.96;99442.81;4908078;29;20174;-92
2024/04/03 09:58:45;;;;;;;2.08;0.75;;;;;;;18.95;30.34;99454.56;4924737;29;20035;-94
2024/04/03 10:01:11;;;;;;;2.88;0.50;;;;;;;18.95;30.69;99457.28;4909011;29;20066;-93
2024/04/03 10:03:38;;;;;;;0.85;0.57;;;;;;;18.88;30.97;99437.06;4902149;29;20043;-93
2024/04/03 10:06:09;;;;;;;2.58;0.52;;;;;;;18.90;30.79;99429.38;4899547;29;20094;-91
2024/04/03 10:12:19;;;;;;;1.42;0.40;;;;;;;19.15;30.53;99434.00;4959068;29;20141;-92
2024/04/03 10:15:01;;;;;;;5.22;0.90;;;;;;;19.26;29.38;99450.84;4906755;29;20044;-94
2024/04/03 10:17:37;;;;;;;4.40;0.80;;;;;;;19.24;29.10;99447.63;4894789;29;20122;-91
2024/04/03 10:20:11;;;;;;;1.38;0.50;;;;;;;19.27;28.98;99430.59;4927053;29;20041;-91
2024/04/03 10:22:41;;;;;;;0.70;0.50;;;;;;;19.36;28.86;99436.00;4923182;29;20131;-91
2024/04/03 10:25:31;;;;;;;0.63;0.40;;;;;;;19.35;28.63;99418.03;4894078;29;20111;-92
2024/04/03 10:28:27;;;;;;;2.83;0.60;;;;;;;19.64;29.04;99447.34;4921911;29;20023;-90
2024/04/03 10:34:25;;;;;;;10.32;4.05;;;;;;;19.98;27.79;99443.69;4940567;29;20038;-93
2024/04/03 10:37:30;;;;;;;1.25;0.85;;;;;;;19.78;28.08;99419.84;4938448;29;20027;-92
2024/04/03 10:39:58;;;;;;;1.80;0.60;;;;;;;19.61;28.79;99411.69;4927959;29;20054;-92
2024/04/03 10:42:37;;;;;;;4.55;0.80;;;;;;;19.79;28.14;99422.22;4911574;29;20100;-93
2024/04/03 10:45:08;;;;;;;1.95;0.60;;;;;;;20.01;26.94;99425.84;4913179;29;20525;-94
2024/04/03 10:47:34;;;;;;;2.95;0.70;;;;;;;20.12;27.40;99420.78;4931773;29;20015;-91
2024/04/03 10:50:00;;;;;;;4.80;0.88;;;;;;;20.29;27.36;99428.88;4912325;29;20036;-92
2024/04/03 10:52:29;;;;;;;2.45;0.47;;;;;;;20.18;27.98;99414.78;4897359;29;20155;-94
2024/04/03 10:54:55;;;;;;;2.70;1.40;;;;;;;20.32;28.08;99411.00;4923467;29;20545;-93
2024/04/03 10:58:14;;;;;;;2.67;0.60;;;;;;;20.43;27.92;99433.28;4915967;29;20031;-92
2024/04/03 11:04:18;;;;;;;2.90;1.52;;;;;;;20.24;27.59;99396.25;4831169;29;20034;-91
2024/04/03 11:06:50;;;;;;;6.47;1.35;;;;;;;20.28;27.70;99404.59;4823425;29;20045;-93
2024/04/03 11:13:03;;;;;;;2.55;1.45;;;;;;;20.09;26.44;99388.66;4914664;29;19933;-96
2024/04/03 11:16:26;;;;;;;;;;;;;;;;;;;;;
2024/04/03 11:18:51;;;;;;;2.25;0.70;;;;;;;20.16;26.37;99380.72;4882415;29;20133;-92
2024/04/03 11:21:26;;;;;;;1.38;0.60;;;;;;;20.35;25.00;99391.19;4864374;29;20033;-92
2024/04/03 11:41:12;;;;;;;1.00;0.50;;;;;;;20.36;26.55;99362.72;4850000;29;20169;-95
2024/04/03 11:43:48;;;;;;;1.83;0.57;;;;;;;20.07;27.49;99353.44;4823048;29;20070;-95
2024/04/03 11:46:14;;;;;;;2.17;0.90;;;;;;;20.13;28.39;99354.03;4886736;29;20036;-93
2024/04/03 11:48:49;;;;;;;0.82;0.50;;;;;;;20.31;27.49;99371.91;4893856;29;20071;-93
2024/04/03 11:51:22;;;;;;;4.68;0.68;;;;;;;20.24;27.56;99352.50;4877840;29;20060;-94
2024/04/03 11:53:53;;;;;;;2.55;0.50;;;;;;;20.11;26.25;99348.91;4922620;29;20031;-92
2024/04/03 11:56:44;;;;;;;1.27;0.60;;;;;;;20.23;27.47;99371.97;4896077;29;20514;-94
2024/04/03 11:59:14;;;;;;;2.88;0.50;;;;;;;20.13;28.11;99373.16;4912796;29;20035;-95
2024/04/03 12:01:39;;;;;;;1.80;0.52;;;;;;;20.10;27.01;99360.97;4909173;29;20597;-88
2024/04/03 12:04:43;;;;;;;0.70;0.47;;;;;;;20.15;27.21;99359.97;4893954;29;20080;-93
2024/04/03 12:07:21;;;;;;;2.95;1.73;;;;;;;20.14;26.92;99350.97;4898699;29;20577;-93
2024/04/03 12:09:49;;;;;;;5.10;2.65;;;;;;;20.20;26.85;99359.78;4924830;29;20044;-93
2024/04/03 12:12:59;;;;;;;2.97;0.82;;;;;;;20.17;27.73;99344.03;4937699;29;20024;-93
2024/04/03 12:15:31;;;;;;;0.70;0.50;;;;;;;20.28;26.38;99363.59;4905522;29;20038;-94
2024/04/03 12:18:48;;;;;;;3.95;0.50;;;;;;;20.30;25.55;99348.44;4908480;29;20479;-93
2024/04/03 12:25:12;;;;;;;1.95;0.70;;;;;;;20.42;26.52;99346.88;4878980;29;20041;-91
2024/04/03 12:27:37;;;;;;;2.03;0.70;;;;;;;20.46;26.73;99365.06;4850777;29;20072;-91
2024/04/03 12:30:06;;;;;;;1.85;0.60;;;;;;;20.42;27.00;99372.31;4805063;29;20022;-93
2024/04/03 12:32:32;;;;;;;1.92;0.70;;;;;;;20.34;26.96;99343.13;4817868;29;20053;-94
2024/04/03 12:35:14;;;;;;;1.17;0.50;;;;;;;20.28;26.82;99337.03;4842367;29;20042;-94
2024/04/03 12:37:53;;;;;;;4.22;0.60;;;;;;;20.29;27.76;99351.50;4927058;29;20044;-92
2024/04/03 12:40:22;;;;;;;3.00;0.70;;;;;;;20.30;27.72;99332.03;4927787;29;20028;-93
2024/04/03 12:42:54;;;;;;;2.78;0.63;;;;;;;20.12;27.71;99330.56;4896371;29;20119;-94
2024/04/03 12:48:35;;;;;;;1.27;0.60;;;;;;;20.24;25.56;99335.31;4929995;29;19926;-92
2024/04/03 12:51:32;;;;;;;5.28;2.90;;;;;;;20.44;25.18;99334.50;4921727;29;20128;-91
2024/04/03 12:54:37;;;;;;;1.35;0.88;;;;;;;20.42;26.31;99303.13;4923336;29;20097;-91
2024/04/03 12:57:03;;;;;;;2.88;0.60;;;;;;;20.56;25.87;99307.16;4932247;29;20113;-91
2024/04/03 12:59:41;;;;;;;0.93;0.68;;;;;;;20.68;25.86;99311.91;4924517;29;20460;-93
2024/04/03 13:02:32;;;;;;;2.90;0.60;;;;;;;20.78;25.89;99306.03;4920187;29;20079;-94
2024/04/03 13:05:00;;;;;;;1.70;0.55;;;;;;;20.90;25.88;99299.00;4911306;29;20028;-93
2024/04/03 13:07:44;;;;;;;0.47;0.40;;;;;;;21.08;25.34;99316.78;4922418;29;20047;-93
2024/04/03 13:10:10;;;;;;;2.80;0.70;;;;;;;21.08;26.10;99305.84;4903056;29;20047;-91
2024/04/03 13:13:29;;;;;;;1.02;0.60;;;;;;;21.17;26.12;99305.75;4919859;29;20032;-91
2024/04/03 13:16:00;;;;;;;1.40;0.60;;;;;;;20.74;26.80;99276.94;4880572;29;20415;-93
2024/04/03 13:18:36;;;;;;;0.95;0.60;;;;;;;20.73;26.55;99280.81;4898870;29;20059;-91
2024/04/03 13:21:25;;;;;;;2.55;0.68;;;;;;;20.84;26.70;99284.72;4894230;29;20032;-92
2024/04/03 13:23:56;;;;;;;1.38;0.60;;;;;;;20.81;26.09;99290.84;4900425;29;20023;-91
2024/04/03 13:26:42;;;;;;;0.95;0.50;;;;;;;20.90;26.41;99280.63;4890361;29;20043;-92
2024/04/03 13:29:07;;;;;;;1.38;0.40;;;;;;;20.81;26.49;99284.59;4911808;29;20027;-91
2024/04/03 13:31:42;;;;;;;4.38;0.80;;;;;;;20.70;26.36;99273.28;4900631;29;20122;-90